Time;durP1;ratioP1;P1;durP2;ratioP2;P2;SDS_P1;SDS_P2;PMS_P1;PMS_P2;Temp;Humidity;BMP_temperature;BMP_pressure;BME280_temperature;BME280_humidity;BME280_pressure;Samples;Min_cycle;Max_cycle;Signal;HPM_P1;HPM_P2
2020/12/23 00:01:19;;;;;;;24.47;22.10;;;;;;;;;;4994942;28;20183;-86
2020/12/23 00:03:45;;;;;;;24.07;21.67;;;;;;;;;;4994691;28;20182;-85
2020/12/23 00:06:15;;;;;;;25.40;19.60;;;;;;;;;;4994637;28;20677;-86
2020/12/23 00:08:42;;;;;;;22.37;20.13;;;;;;;;;;4995853;28;20232;-86
2020/12/23 00:11:10;;;;;;;23.03;20.73;;;;;;;;;;4994649;28;20187;-86
2020/12/23 00:13:37;;;;;;;25.03;22.40;;;;;;;;;;4994616;28;20202;-86
2020/12/23 00:16:06;;;;;;;25.03;22.83;;;;;;;;;;4994278;28;20190;-86
2020/12/23 00:18:36;;;;;;;27.60;24.80;;;;;;;;;;4994524;28;20166;-85
2020/12/23 00:21:09;;;;;;;27.37;24.83;;;;;;;;;;4995700;28;20174;-85
2020/12/23 00:23:40;;;;;;;26.53;23.93;;;;;;;;;;4995712;28;20187;-85
2020/12/23 00:26:13;;;;;;;30.47;23.83;;;;;;;;;;4994281;28;20267;-86
2020/12/23 00:28:45;;;;;;;28.57;23.20;;;;;;;;;;4994111;28;20236;-86
2020/12/23 00:31:16;;;;;;;25.03;22.40;;;;;;;;;;4995675;28;20253;-86
2020/12/23 00:33:45;;;;;;;24.23;21.83;;;;;;;;;;4995330;28;20252;-86
2020/12/23 00:36:18;;;;;;;24.67;22.30;;;;;;;;;;4995310;28;20198;-86
2020/12/23 00:38:46;;;;;;;24.97;22.73;;;;;;;;;;4995673;28;20641;-86
2020/12/23 00:41:18;;;;;;;25.73;23.03;;;;;;;;;;4994058;28;20178;-86
2020/12/23 00:43:44;;;;;;;26.97;22.70;;;;;;;;;;4995263;28;20261;-86
2020/12/23 00:46:13;;;;;;;23.13;21.40;;;;;;;;;;4995032;28;20202;-86
2020/12/23 00:48:45;;;;;;;24.73;22.53;;;;;;;;;;4994039;28;20181;-86
2020/12/23 00:51:21;;;;;;;27.17;23.13;;;;;;;;;;4993893;28;20696;-86
2020/12/23 00:53:51;;;;;;;24.67;21.70;;;;;;;;;;4995258;28;20189;-86
2020/12/23 00:56:24;;;;;;;24.40;22.10;;;;;;;;;;4993678;28;20194;-86
2020/12/23 00:58:52;;;;;;;23.97;20.83;;;;;;;;;;4994157;28;20182;-86
2020/12/23 01:01:24;;;;;;;25.30;20.30;;;;;;;;;;4993717;28;20186;-86
2020/12/23 01:03:50;;;;;;;22.83;20.40;;;;;;;;;;4993683;28;20193;-86
2020/12/23 01:06:21;;;;;;;27.67;19.93;;;;;;;;;;4993581;28;20260;-86
2020/12/23 01:08:48;;;;;;;21.63;19.73;;;;;;;;;;4993618;28;20210;-86
2020/12/23 01:11:20;;;;;;;23.00;21.13;;;;;;;;;;4993650;28;20170;-86
2020/12/23 01:13:51;;;;;;;23.27;21.03;;;;;;;;;;4994830;28;20768;-86
2020/12/23 01:16:24;;;;;;;25.17;22.83;;;;;;;;;;4993475;28;20580;-86
2020/12/23 01:18:54;;;;;;;26.47;23.70;;;;;;;;;;4994474;28;20178;-87
2020/12/23 01:21:25;;;;;;;26.13;24.00;;;;;;;;;;4993327;28;20201;-87
2020/12/23 01:23:58;;;;;;;29.87;26.97;;;;;;;;;;4993378;28;20557;-87
2020/12/23 01:26:29;;;;;;;27.23;24.77;;;;;;;;;;4994481;28;20602;-87
2020/12/23 01:29:00;;;;;;;26.23;24.13;;;;;;;;;;4994550;28;20683;-86
2020/12/23 01:31:33;;;;;;;26.67;24.57;;;;;;;;;;4993112;28;20181;-87
2020/12/23 01:34:10;;;;;;;27.60;25.17;;;;;;;;;;4993046;28;20206;-87
2020/12/23 01:36:40;;;;;;;27.43;24.57;;;;;;;;;;4994399;28;20197;-87
2020/12/23 01:39:15;;;;;;;25.90;23.13;;;;;;;;;;4992531;28;20175;-87
2020/12/23 01:41:45;;;;;;;25.93;23.57;;;;;;;;;;4994554;28;20273;-87
2020/12/23 01:44:17;;;;;;;27.27;25.13;;;;;;;;;;4994243;28;20189;-87
2020/12/23 01:46:50;;;;;;;26.80;24.60;;;;;;;;;;4994257;28;20194;-87
2020/12/23 01:49:22;;;;;;;30.33;25.80;;;;;;;;;;4994546;28;20173;-87
2020/12/23 01:51:51;;;;;;;27.37;24.70;;;;;;;;;;4992933;28;20230;-87
2020/12/23 01:54:22;;;;;;;27.80;25.73;;;;;;;;;;4992828;28;20211;-87
2020/12/23 01:56:53;;;;;;;25.90;23.33;;;;;;;;;;4994161;28;20277;-87
2020/12/23 01:59:20;;;;;;;25.67;22.87;;;;;;;;;;4994200;28;20254;-86
2020/12/23 02:01:49;;;;;;;31.43;28.47;;;;;;;;;;4992912;28;20184;-86
2020/12/23 02:04:16;;;;;;;28.50;25.63;;;;;;;;;;4992792;28;20661;-86
2020/12/23 02:06:46;;;;;;;29.40;26.37;;;;;;;;;;4992537;28;20581;-86
2020/12/23 02:09:18;;;;;;;28.80;26.40;;;;;;;;;;4994005;28;20188;-87
2020/12/23 02:11:51;;;;;;;28.13;25.70;;;;;;;;;;4992892;28;20591;-87
2020/12/23 02:14:21;;;;;;;26.83;24.53;;;;;;;;;;4994172;28;20225;-87
2020/12/23 02:16:51;;;;;;;27.40;25.13;;;;;;;;;;4992785;28;20677;-87
2020/12/23 02:19:25;;;;;;;29.57;26.90;;;;;;;;;;4992613;28;20188;-87
2020/12/23 02:21:55;;;;;;;29.20;26.63;;;;;;;;;;4993059;28;20173;-87
2020/12/23 02:24:21;;;;;;;27.97;25.67;;;;;;;;;;4994365;28;20680;-87
2020/12/23 02:26:48;;;;;;;26.23;23.40;;;;;;;;;;4992231;28;20214;-87
2020/12/23 02:29:23;;;;;;;24.23;21.90;;;;;;;;;;4992578;28;20619;-87
2020/12/23 02:31:50;;;;;;;24.97;22.57;;;;;;;;;;4993394;28;20627;-87
2020/12/23 02:34:22;;;;;;;24.83;22.77;;;;;;;;;;4992518;28;20212;-87
2020/12/23 02:36:54;;;;;;;23.30;21.40;;;;;;;;;;4993889;28;20282;-87
2020/12/23 02:39:27;;;;;;;24.40;22.57;;;;;;;;;;4992324;28;20186;-87
2020/12/23 02:42:01;;;;;;;35.93;25.00;;;;;;;;;;4993614;28;20710;-87
2020/12/23 02:44:33;;;;;;;28.10;25.63;;;;;;;;;;4992428;28;20181;-87
2020/12/23 02:47:04;;;;;;;27.10;25.13;;;;;;;;;;4992312;28;20213;-87
2020/12/23 02:49:35;;;;;;;26.97;25.07;;;;;;;;;;4993515;28;20186;-87
2020/12/23 02:52:11;;;;;;;27.83;26.13;;;;;;;;;;4996879;28;20181;-87
2020/12/23 02:54:37;;;;;;;27.13;25.17;;;;;;;;;;4996607;28;20197;-87
2020/12/23 02:57:07;;;;;;;28.93;27.07;;;;;;;;;;4996032;28;20309;-87
2020/12/23 02:59:41;;;;;;;28.10;26.07;;;;;;;;;;4997132;28;20178;-87
2020/12/23 03:02:11;;;;;;;27.67;25.30;;;;;;;;;;4997450;28;20225;-87
2020/12/23 03:04:44;;;;;;;23.23;21.73;;;;;;;;;;4996214;28;20665;-87
2020/12/23 03:07:19;;;;;;;26.20;24.57;;;;;;;;;;4995659;28;20216;-87
2020/12/23 03:09:51;;;;;;;28.97;27.17;;;;;;;;;;4995712;28;20178;-87
2020/12/23 03:12:22;;;;;;;75.00;31.83;;;;;;;;;;4995677;28;20628;-87
2020/12/23 03:14:49;;;;;;;59.90;31.83;;;;;;;;;;4996867;28;20212;-87
2020/12/23 03:17:19;;;;;;;32.63;30.53;;;;;;;;;;4995586;28;20213;-87
2020/12/23 03:19:55;;;;;;;33.17;30.37;;;;;;;;;;4995553;28;20173;-87
2020/12/23 03:22:24;;;;;;;31.23;28.63;;;;;;;;;;4996811;28;20162;-87
2020/12/23 03:24:53;;;;;;;33.37;30.73;;;;;;;;;;4995474;28;20194;-87
2020/12/23 03:27:21;;;;;;;44.03;32.57;;;;;;;;;;4995445;28;20228;-87
2020/12/23 03:29:53;;;;;;;36.40;34.10;;;;;;;;;;4996700;28;20649;-87
2020/12/23 03:32:24;;;;;;;36.90;33.93;;;;;;;;;;4996913;28;20189;-87
2020/12/23 03:34:51;;;;;;;36.20;32.20;;;;;;;;;;4995290;28;20206;-87
2020/12/23 03:37:20;;;;;;;61.70;32.73;;;;;;;;;;4996464;28;20272;-87
2020/12/23 03:39:49;;;;;;;38.27;35.33;;;;;;;;;;4995284;28;20189;-87
2020/12/23 03:42:21;;;;;;;52.17;35.63;;;;;;;;;;4995224;28;20619;-87
2020/12/23 03:44:55;;;;;;;48.03;43.07;;;;;;;;;;4996772;28;20177;-87
2020/12/23 03:47:25;;;;;;;55.10;36.70;;;;;;;;;;4995022;28;20232;-87
2020/12/23 03:49:55;;;;;;;71.27;35.67;;;;;;;;;;4994937;28;20186;-87
2020/12/23 03:52:29;;;;;;;40.73;37.37;;;;;;;;;;4994981;28;20661;-87
2020/12/23 03:55:01;;;;;;;42.90;34.53;;;;;;;;;;4995689;28;20219;-87
2020/12/23 03:57:37;;;;;;;44.53;32.73;;;;;;;;;;4996339;28;20272;-87
2020/12/23 04:00:13;;;;;;;38.17;33.57;;;;;;;;;;4995539;28;20176;-87
2020/12/23 04:02:43;;;;;;;45.23;35.93;;;;;;;;;;4995919;28;20159;-87
2020/12/23 04:05:15;;;;;;;38.03;34.20;;;;;;;;;;4996238;28;20197;-87
2020/12/23 04:07:46;;;;;;;66.23;29.93;;;;;;;;;;4995794;28;20206;-87
2020/12/23 04:10:18;;;;;;;36.00;29.10;;;;;;;;;;4996117;28;20184;-87
2020/12/23 04:12:47;;;;;;;41.70;28.43;;;;;;;;;;4996163;28;20184;-87
2020/12/23 04:15:24;;;;;;;29.93;26.37;;;;;;;;;;4994466;28;20305;-87
2020/12/23 04:17:54;;;;;;;31.53;28.77;;;;;;;;;;4995825;28;20179;-87
2020/12/23 04:20:23;;;;;;;30.87;27.57;;;;;;;;;;4995684;28;20188;-87
2020/12/23 04:22:54;;;;;;;29.03;27.00;;;;;;;;;;4994532;28;20655;-87
2020/12/23 04:25:29;;;;;;;28.53;26.40;;;;;;;;;;4995614;28;20195;-87
2020/12/23 04:28:01;;;;;;;30.13;27.70;;;;;;;;;;4994748;28;20198;-87
2020/12/23 04:30:32;;;;;;;32.03;29.40;;;;;;;;;;4994341;28;20185;-87
2020/12/23 04:33:03;;;;;;;33.43;30.47;;;;;;;;;;4994199;28;20182;-87
2020/12/23 04:35:36;;;;;;;31.53;29.47;;;;;;;;;;4994424;28;20211;-87
2020/12/23 04:38:07;;;;;;;31.93;28.70;;;;;;;;;;4995865;28;20172;-87
2020/12/23 04:40:39;;;;;;;30.63;28.63;;;;;;;;;;4994194;28;20185;-87
2020/12/23 04:43:10;;;;;;;29.83;26.90;;;;;;;;;;4994117;28;20210;-87
2020/12/23 04:45:37;;;;;;;28.13;25.80;;;;;;;;;;4995507;28;20616;-87
2020/12/23 04:48:08;;;;;;;29.67;27.30;;;;;;;;;;4993838;28;20218;-87
2020/12/23 04:50:50;;;;;;;30.83;27.87;;;;;;;;;;4993808;28;20183;-87
2020/12/23 04:53:22;;;;;;;28.83;27.10;;;;;;;;;;4994090;28;20256;-87
2020/12/23 04:55:54;;;;;;;33.63;31.43;;;;;;;;;;4995088;28;20793;-87
2020/12/23 04:58:27;;;;;;;37.50;30.90;;;;;;;;;;4993649;28;20229;-87
2020/12/23 05:00:54;;;;;;;34.53;32.10;;;;;;;;;;4995027;28;20175;-87
2020/12/23 05:03:24;;;;;;;36.80;34.70;;;;;;;;;;4993591;28;20227;-87
2020/12/23 05:05:54;;;;;;;39.03;35.07;;;;;;;;;;4994853;28;20210;-87
2020/12/23 05:08:27;;;;;;;37.60;34.87;;;;;;;;;;4993590;28;20205;-87
2020/12/23 05:10:54;;;;;;;36.53;33.90;;;;;;;;;;4995036;28;20180;-87
2020/12/23 05:13:27;;;;;;;37.90;35.50;;;;;;;;;;4994219;28;20208;-87
2020/12/23 05:15:59;;;;;;;37.13;34.67;;;;;;;;;;4993050;28;20200;-87
2020/12/23 05:18:33;;;;;;;36.63;33.77;;;;;;;;;;4994711;28;20202;-87
2020/12/23 05:21:04;;;;;;;37.03;34.20;;;;;;;;;;4994667;28;20174;-87
2020/12/23 05:23:44;;;;;;;37.60;35.03;;;;;;;;;;4993356;28;20185;-87
2020/12/23 05:26:15;;;;;;;38.37;35.40;;;;;;;;;;4993442;28;20226;-87
2020/12/23 05:28:45;;;;;;;35.23;32.57;;;;;;;;;;4993258;28;20190;-87
2020/12/23 05:31:17;;;;;;;34.80;32.03;;;;;;;;;;4994393;28;20238;-87
2020/12/23 05:33:46;;;;;;;34.23;31.70;;;;;;;;;;4994259;28;20204;-87
2020/12/23 05:36:17;;;;;;;33.53;30.87;;;;;;;;;;4992856;28;20338;-87
2020/12/23 05:38:46;;;;;;;32.93;29.63;;;;;;;;;;4994422;28;20563;-87
2020/12/23 05:41:16;;;;;;;35.17;32.60;;;;;;;;;;4993371;28;20184;-87
2020/12/23 05:43:46;;;;;;;35.40;31.63;;;;;;;;;;4994163;28;20267;-87
2020/12/23 05:46:15;;;;;;;33.77;30.37;;;;;;;;;;4994689;28;20682;-87
2020/12/23 05:48:45;;;;;;;49.17;32.87;;;;;;;;;;4994162;28;20609;-87
2020/12/23 05:51:14;;;;;;;35.90;32.50;;;;;;;;;;4992852;28;20191;-87
2020/12/23 05:53:45;;;;;;;33.87;30.97;;;;;;;;;;4994038;28;20209;-87
2020/12/23 05:56:15;;;;;;;49.47;31.73;;;;;;;;;;4993049;28;20199;-88
2020/12/23 05:58:45;;;;;;;51.33;31.43;;;;;;;;;;4992767;28;20219;-87
2020/12/23 06:01:21;;;;;;;33.30;29.80;;;;;;;;;;4994296;28;20181;-87
2020/12/23 06:04:00;;;;;;;36.57;30.30;;;;;;;;;;4992916;28;20186;-87
2020/12/23 06:06:35;;;;;;;32.43;29.77;;;;;;;;;;4992630;28;20198;-87
2020/12/23 06:09:11;;;;;;;36.47;32.70;;;;;;;;;;4992796;28;20190;-87
2020/12/23 06:11:47;;;;;;;38.80;32.27;;;;;;;;;;4992715;28;20181;-87
2020/12/23 06:14:17;;;;;;;38.83;35.50;;;;;;;;;;4992575;28;20208;-87
2020/12/23 06:16:49;;;;;;;39.03;35.03;;;;;;;;;;4993745;28;20282;-87
2020/12/23 06:19:17;;;;;;;36.43;33.43;;;;;;;;;;4993734;28;20178;-87
2020/12/23 06:21:48;;;;;;;38.90;35.93;;;;;;;;;;4993744;28;20666;-87
2020/12/23 06:24:23;;;;;;;41.60;38.07;;;;;;;;;;4993777;28;20202;-87
2020/12/23 06:26:51;;;;;;;39.03;36.43;;;;;;;;;;4996909;28;20221;-87
2020/12/23 06:29:20;;;;;;;75.23;36.97;;;;;;;;;;4996658;28;20212;-87
2020/12/23 06:32:00;;;;;;;37.30;34.53;;;;;;;;;;4997945;28;20177;-87
2020/12/23 06:34:33;;;;;;;41.90;38.27;;;;;;;;;;4997897;28;20240;-87
2020/12/23 06:37:00;;;;;;;41.30;38.53;;;;;;;;;;4996348;28;20236;-87
2020/12/23 06:39:35;;;;;;;41.30;38.10;;;;;;;;;;4997535;28;20178;-87
2020/12/23 06:42:07;;;;;;;40.20;36.90;;;;;;;;;;4997764;28;20212;-87
2020/12/23 06:44:49;;;;;;;20.70;16.07;;;;;;;;;;4996478;28;20582;-87
2020/12/23 06:47:24;;;;;;;24.73;15.13;;;;;;;;;;4996078;28;20202;-87
2020/12/23 06:49:54;;;;;;;20.80;16.10;;;;;;;;;;4996766;28;20253;-87
2020/12/23 06:52:28;;;;;;;17.03;15.40;;;;;;;;;;4995951;28;20176;-87
2020/12/23 06:54:57;;;;;;;15.97;14.53;;;;;;;;;;4996047;28;20211;-87
2020/12/23 06:57:35;;;;;;;16.63;15.33;;;;;;;;;;4999614;28;20201;-87
2020/12/23 07:00:09;;;;;;;15.13;13.80;;;;;;;;;;4998036;28;20191;-87
2020/12/23 07:02:47;;;;;;;20.73;15.10;;;;;;;;;;4996664;28;20179;-87
2020/12/23 07:05:32;;;;;;;16.43;14.63;;;;;;;;;;4996075;28;20177;-88
2020/12/23 07:07:59;;;;;;;16.47;14.97;;;;;;;;;;4995928;28;20659;-87
2020/12/23 07:10:31;;;;;;;15.70;14.60;;;;;;;;;;4995831;28;20186;-87
2020/12/23 07:13:02;;;;;;;15.97;14.90;;;;;;;;;;4995786;28;20183;-87
2020/12/23 07:15:35;;;;;;;16.43;14.83;;;;;;;;;;4995566;28;20563;-88
2020/12/23 07:18:02;;;;;;;17.60;15.87;;;;;;;;;;4997145;28;20181;-88
2020/12/23 07:20:30;;;;;;;27.00;14.80;;;;;;;;;;4996841;28;20176;-88
2020/12/23 07:23:05;;;;;;;15.90;14.67;;;;;;;;;;4995610;28;20255;-88
2020/12/23 07:25:39;;;;;;;16.13;14.73;;;;;;;;;;4995299;28;20186;-87
2020/12/23 07:28:12;;;;;;;16.37;15.07;;;;;;;;;;4996858;28;20185;-88
2020/12/23 07:30:42;;;;;;;16.83;15.20;;;;;;;;;;4995534;28;20165;-88
2020/12/23 07:33:18;;;;;;;16.20;14.90;;;;;;;;;;4995369;28;20178;-87
2020/12/23 07:35:52;;;;;;;15.90;14.70;;;;;;;;;;4996443;28;20253;-88
2020/12/23 07:38:25;;;;;;;17.43;15.37;;;;;;;;;;4994327;28;20196;-88
2020/12/23 07:40:58;;;;;;;18.73;16.83;;;;;;;;;;4996207;28;20541;-87
2020/12/23 07:43:28;;;;;;;17.90;16.00;;;;;;;;;;4996319;28;20706;-87
2020/12/23 07:46:01;;;;;;;17.60;15.27;;;;;;;;;;4996356;28;20581;-87
2020/12/23 07:48:33;;;;;;;16.47;14.97;;;;;;;;;;4995081;28;20191;-87
2020/12/23 07:51:03;;;;;;;25.87;15.23;;;;;;;;;;4996488;28;20236;-87
2020/12/23 07:53:34;;;;;;;29.20;14.77;;;;;;;;;;4996550;28;20193;-87
2020/12/23 07:56:09;;;;;;;22.90;14.03;;;;;;;;;;4994896;28;20249;-87
2020/12/23 07:58:40;;;;;;;23.73;13.70;;;;;;;;;;4994821;28;20178;-87
2020/12/23 08:01:12;;;;;;;16.73;15.00;;;;;;;;;;4996416;28;20552;-88
2020/12/23 08:03:44;;;;;;;21.87;13.33;;;;;;;;;;4995983;28;20269;-88
2020/12/23 08:06:11;;;;;;;21.40;13.47;;;;;;;;;;4995912;28;20682;-88
2020/12/23 08:08:44;;;;;;;19.67;13.30;;;;;;;;;;4994977;28;20192;-87
2020/12/23 08:11:19;;;;;;;15.57;13.33;;;;;;;;;;4996250;28;20181;-87
2020/12/23 08:13:53;;;;;;;16.37;13.60;;;;;;;;;;4995683;28;20206;-87
2020/12/23 08:16:25;;;;;;;15.73;12.50;;;;;;;;;;4994614;28;20196;-87
2020/12/23 08:18:55;;;;;;;13.27;11.90;;;;;;;;;;4994559;28;20219;-87
2020/12/23 08:21:29;;;;;;;13.23;12.03;;;;;;;;;;4994369;28;20244;-87
2020/12/23 08:23:59;;;;;;;16.50;12.33;;;;;;;;;;4995682;28;20189;-87
2020/12/23 08:26:29;;;;;;;35.97;13.63;;;;;;;;;;4994329;28;20221;-87
2020/12/23 08:29:05;;;;;;;72.10;16.10;;;;;;;;;;4995622;28;20187;-87
2020/12/23 08:31:33;;;;;;;121.67;23.60;;;;;;;;;;4995373;28;20577;-87
2020/12/23 08:34:04;;;;;;;158.87;27.47;;;;;;;;;;4995329;28;20254;-87
2020/12/23 08:36:34;;;;;;;110.53;23.57;;;;;;;;;;4994181;28;20196;-87
2020/12/23 08:39:06;;;;;;;50.33;16.57;;;;;;;;;;4994119;28;20232;-87
2020/12/23 08:41:39;;;;;;;42.43;14.03;;;;;;;;;;4994313;28;20268;-87
2020/12/23 08:44:08;;;;;;;43.70;14.50;;;;;;;;;;4994023;28;20249;-87
2020/12/23 08:46:41;;;;;;;23.27;13.30;;;;;;;;;;4994202;28;20209;-87
2020/12/23 08:49:07;;;;;;;20.97;12.83;;;;;;;;;;4994628;28;20179;-87
2020/12/23 08:51:39;;;;;;;30.00;12.77;;;;;;;;;;4995155;28;20186;-87
2020/12/23 08:54:15;;;;;;;16.03;11.83;;;;;;;;;;4994918;28;20213;-87
2020/12/23 08:56:51;;;;;;;29.63;11.03;;;;;;;;;;4994955;28;20198;-88
2020/12/23 08:59:21;;;;;;;11.97;10.77;;;;;;;;;;4993829;28;20268;-87
2020/12/23 09:01:51;;;;;;;11.83;10.70;;;;;;;;;;4995261;28;20178;-87
2020/12/23 09:04:32;;;;;;;15.87;11.40;;;;;;;;;;4993698;28;20618;-87
2020/12/23 09:07:01;;;;;;;25.00;11.87;;;;;;;;;;4994983;28;20290;-87
2020/12/23 09:09:29;;;;;;;17.33;11.77;;;;;;;;;;4994376;28;20189;-87
2020/12/23 09:11:59;;;;;;;18.37;11.67;;;;;;;;;;4994417;28;20255;-87
2020/12/23 09:14:31;;;;;;;15.60;12.07;;;;;;;;;;4993737;28;20235;-87
2020/12/23 09:17:06;;;;;;;22.67;13.37;;;;;;;;;;4994488;28;20205;-87
2020/12/23 09:19:43;;;;;;;13.40;12.03;;;;;;;;;;4994456;28;20169;-87
2020/12/23 09:22:10;;;;;;;14.30;11.30;;;;;;;;;;4994054;28;20184;-87
2020/12/23 09:24:36;;;;;;;17.77;12.10;;;;;;;;;;4997377;28;20633;-87
2020/12/23 09:27:02;;;;;;;21.60;12.17;;;;;;;;;;4995825;28;20221;-87
2020/12/23 09:29:48;;;;;;;13.97;11.53;;;;;;;;;;4995335;28;20184;-87
2020/12/23 09:32:14;;;;;;;13.23;11.80;;;;;;;;;;4993369;28;20204;-87
2020/12/23 09:34:44;;;;;;;13.57;12.17;;;;;;;;;;4994129;28;20605;-87
2020/12/23 09:37:14;;;;;;;15.17;11.20;;;;;;;;;;4994087;28;20320;-87
2020/12/23 09:39:44;;;;;;;13.03;11.87;;;;;;;;;;4993162;28;20261;-87
2020/12/23 09:42:19;;;;;;;14.90;13.47;;;;;;;;;;4993677;28;20197;-88
2020/12/23 09:44:45;;;;;;;18.97;13.87;;;;;;;;;;4994227;28;20174;-87
2020/12/23 09:47:18;;;;;;;15.00;13.13;;;;;;;;;;4993175;28;20209;-86
2020/12/23 09:49:49;;;;;;;15.87;13.90;;;;;;;;;;4994425;28;20184;-86
2020/12/23 09:52:20;;;;;;;16.40;14.23;;;;;;;;;;4994527;28;20179;-86
2020/12/23 09:54:51;;;;;;;18.73;14.77;;;;;;;;;;4993987;28;20232;-87
2020/12/23 09:57:29;;;;;;;17.53;15.10;;;;;;;;;;4993980;28;20197;-87
2020/12/23 09:59:58;;;;;;;18.93;15.67;;;;;;;;;;4992858;28;20641;-87
2020/12/23 10:02:31;;;;;;;19.43;17.30;;;;;;;;;;4992714;28;20184;-87
2020/12/23 10:05:01;;;;;;;17.13;15.30;;;;;;;;;;4992876;28;20201;-87
2020/12/23 10:07:31;;;;;;;19.10;16.03;;;;;;;;;;4992869;28;20228;-87
2020/12/23 10:10:00;;;;;;;20.10;14.90;;;;;;;;;;4992953;28;20189;-87
2020/12/23 10:12:30;;;;;;;19.07;16.47;;;;;;;;;;4992731;28;20178;-87
2020/12/23 10:14:56;;;;;;;21.50;17.33;;;;;;;;;;4992603;28;20699;-88
2020/12/23 10:17:23;;;;;;;26.00;17.93;;;;;;;;;;4992425;28;20286;-88
2020/12/23 10:19:57;;;;;;;20.57;17.20;;;;;;;;;;4992520;28;20583;-88
2020/12/23 10:22:28;;;;;;;21.57;17.67;;;;;;;;;;4992455;28;20228;-88
2020/12/23 10:24:57;;;;;;;19.87;16.17;;;;;;;;;;4993591;28;20646;-88
2020/12/23 10:27:29;;;;;;;23.53;17.37;;;;;;;;;;5017759;23;20241;-83
2020/12/23 10:29:55;;;;;;;22.97;18.70;;;;;;;;;;4994527;28;20545;-82
2020/12/23 10:32:25;;;;;;;26.33;19.33;;;;;;;;;;4993505;28;20317;-83
2020/12/23 10:34:56;;;;;;;27.73;20.03;;;;;;;;;;4992546;28;20669;-83
2020/12/23 10:37:28;;;;;;;33.10;20.00;;;;;;;;;;4993637;28;20189;-83
2020/12/23 10:40:00;;;;;;;29.83;18.80;;;;;;;;;;4992559;28;20166;-83
2020/12/23 10:42:36;;;;;;;31.63;19.63;;;;;;;;;;4993832;28;20178;-83
2020/12/23 10:45:06;;;;;;;32.17;18.67;;;;;;;;;;4994181;28;20171;-83
2020/12/23 10:47:38;;;;;;;33.57;20.63;;;;;;;;;;4992291;28;20200;-83
2020/12/23 10:50:09;;;;;;;34.87;20.20;;;;;;;;;;4993752;28;20187;-83
2020/12/23 10:52:41;;;;;;;37.83;20.97;;;;;;;;;;4992727;28;20599;-83
2020/12/23 10:55:11;;;;;;;40.20;22.47;;;;;;;;;;4993640;28;20206;-83
2020/12/23 10:57:38;;;;;;;34.30;20.23;;;;;;;;;;4993546;28;20200;-83
2020/12/23 11:00:09;;;;;;;35.27;21.23;;;;;;;;;;4992518;28;20178;-83
2020/12/23 11:02:39;;;;;;;35.53;20.63;;;;;;;;;;4993748;28;20177;-83
2020/12/23 11:05:10;;;;;;;28.20;19.67;;;;;;;;;;4993652;28;20209;-83
2020/12/23 11:07:39;;;;;;;30.93;20.23;;;;;;;;;;4992248;28;20205;-83
2020/12/23 11:10:05;;;;;;;33.10;19.57;;;;;;;;;;4993328;28;20661;-83
2020/12/23 11:12:35;;;;;;;37.57;19.33;;;;;;;;;;4994678;28;20251;-83
2020/12/23 11:15:07;;;;;;;35.77;19.67;;;;;;;;;;4996971;28;20206;-83
2020/12/23 11:17:38;;;;;;;31.83;19.80;;;;;;;;;;4997934;28;20197;-83
2020/12/23 11:20:09;;;;;;;33.80;20.00;;;;;;;;;;4996793;28;20181;-83
2020/12/23 11:22:38;;;;;;;32.40;20.13;;;;;;;;;;4997123;28;20241;-83
2020/12/23 11:25:09;;;;;;;29.40;20.80;;;;;;;;;;4997266;28;20182;-84
2020/12/23 11:27:35;;;;;;;37.93;20.50;;;;;;;;;;4997542;28;20288;-83
2020/12/23 11:30:05;;;;;;;34.73;21.07;;;;;;;;;;4998137;28;20260;-83
2020/12/23 11:32:35;;;;;;;36.70;20.67;;;;;;;;;;4997657;28;20249;-84
2020/12/23 11:35:01;;;;;;;44.07;22.17;;;;;;;;;;4996630;28;20202;-82
2020/12/23 11:37:31;;;;;;;36.03;20.87;;;;;;;;;;4997380;28;20204;-84
2020/12/23 11:40:01;;;;;;;36.90;21.13;;;;;;;;;;4997121;28;20211;-83
2020/12/23 11:42:28;;;;;;;37.67;20.33;;;;;;;;;;4995999;28;20178;-84
2020/12/23 11:44:59;;;;;;;40.60;20.73;;;;;;;;;;4996734;28;20181;-83
2020/12/23 11:47:36;;;;;;;39.30;21.60;;;;;;;;;;4996331;28;20564;-84
2020/12/23 11:50:07;;;;;;;37.90;22.60;;;;;;;;;;4996357;28;20646;-83
2020/12/23 11:52:41;;;;;;;36.87;21.77;;;;;;;;;;4996460;28;20260;-83
2020/12/23 11:55:14;;;;;;;48.77;22.27;;;;;;;;;;4996783;28;20190;-82
2020/12/23 11:57:45;;;;;;;41.20;21.83;;;;;;;;;;4996694;28;20247;-83
2020/12/23 12:00:17;;;;;;;40.67;22.00;;;;;;;;;;4996707;28;20174;-84
2020/12/23 12:02:48;;;;;;;35.13;21.90;;;;;;;;;;4996947;28;20534;-83
2020/12/23 12:05:21;;;;;;;37.10;22.33;;;;;;;;;;4995484;28;20553;-83
2020/12/23 12:07:52;;;;;;;41.97;20.77;;;;;;;;;;4996003;28;20209;-84
2020/12/23 12:10:24;;;;;;;40.80;22.10;;;;;;;;;;4994717;28;20182;-83
2020/12/23 12:12:51;;;;;;;44.43;22.40;;;;;;;;;;4996036;28;20185;-84
2020/12/23 12:15:22;;;;;;;46.23;23.00;;;;;;;;;;4994586;28;20206;-84
2020/12/23 12:17:56;;;;;;;45.60;22.53;;;;;;;;;;4996014;28;20563;-84
2020/12/23 12:20:25;;;;;;;48.23;23.33;;;;;;;;;;4997179;28;20166;-84
2020/12/23 12:22:58;;;;;;;43.10;22.20;;;;;;;;;;4994324;28;20581;-83
2020/12/23 12:25:27;;;;;;;43.47;22.07;;;;;;;;;;4994537;28;20285;-84
2020/12/23 12:27:55;;;;;;;42.37;21.50;;;;;;;;;;4994343;28;20262;-84
2020/12/23 12:30:26;;;;;;;43.97;22.13;;;;;;;;;;4996051;28;20175;-83
2020/12/23 12:32:56;;;;;;;44.00;22.50;;;;;;;;;;4995812;28;20554;-83
2020/12/23 12:35:25;;;;;;;41.47;21.03;;;;;;;;;;4994221;28;20285;-83
2020/12/23 12:37:57;;;;;;;37.23;19.93;;;;;;;;;;4995403;28;20190;-83
2020/12/23 12:40:23;;;;;;;35.40;19.93;;;;;;;;;;4995765;28;20178;-83
2020/12/23 12:42:49;;;;;;;37.07;20.67;;;;;;;;;;4995480;28;20257;-83
2020/12/23 12:45:15;;;;;;;44.83;22.90;;;;;;;;;;4996095;28;20171;-85
2020/12/23 12:47:44;;;;;;;32.83;20.13;;;;;;;;;;4996818;28;20209;-83
2020/12/23 12:50:11;;;;;;;32.30;20.60;;;;;;;;;;4994610;28;20187;-83
2020/12/23 12:52:37;;;;;;;36.43;20.17;;;;;;;;;;4996163;28;20178;-83
2020/12/23 12:55:03;;;;;;;29.47;19.53;;;;;;;;;;4995845;28;20207;-83
2020/12/23 12:57:29;;;;;;;30.73;19.33;;;;;;;;;;4995924;28;20220;-86
2020/12/23 12:59:55;;;;;;;29.33;19.13;;;;;;;;;;4994435;28;20178;-83
2020/12/23 13:02:21;;;;;;;30.83;18.00;;;;;;;;;;4993880;28;20182;-83
2020/12/23 13:04:47;;;;;;;31.53;19.20;;;;;;;;;;4993763;28;20644;-83
2020/12/23 13:07:13;;;;;;;31.03;19.10;;;;;;;;;;4994920;28;20241;-83
2020/12/23 13:09:39;;;;;;;30.73;18.13;;;;;;;;;;4993838;28;20178;-84
2020/12/23 13:12:05;;;;;;;31.00;18.50;;;;;;;;;;4994782;28;20232;-83
2020/12/23 13:14:35;;;;;;;26.87;18.43;;;;;;;;;;4995526;28;20292;-84
2020/12/23 13:17:04;;;;;;;32.63;17.83;;;;;;;;;;4996147;28;20193;-83
2020/12/23 13:19:31;;;;;;;22.57;17.13;;;;;;;;;;4995036;28;20178;-83
2020/12/23 13:22:07;;;;;;;27.07;17.30;;;;;;;;;;4993480;28;20601;-83
2020/12/23 13:24:38;;;;;;;24.23;16.20;;;;;;;;;;4994606;28;20709;-83
2020/12/23 13:27:10;;;;;;;23.80;15.60;;;;;;;;;;4994443;28;20305;-83
2020/12/23 13:29:39;;;;;;;25.70;16.17;;;;;;;;;;4994830;28;20182;-83
2020/12/23 13:32:11;;;;;;;23.13;15.97;;;;;;;;;;4993158;28;20650;-83
2020/12/23 13:34:40;;;;;;;23.60;15.70;;;;;;;;;;4993912;28;20202;-83
2020/12/23 13:37:07;;;;;;;22.53;16.10;;;;;;;;;;4994418;28;20617;-83
2020/12/23 13:39:33;;;;;;;22.63;15.23;;;;;;;;;;4995320;28;20253;-84
2020/12/23 13:42:00;;;;;;;20.27;15.53;;;;;;;;;;4995417;28;20181;-84
2020/12/23 13:44:28;;;;;;;21.37;15.23;;;;;;;;;;4994442;28;20201;-84
2020/12/23 13:46:56;;;;;;;21.53;14.73;;;;;;;;;;4994462;28;20206;-84
2020/12/23 13:49:22;;;;;;;20.70;15.47;;;;;;;;;;4993560;28;20535;-84
2020/12/23 13:51:49;;;;;;;20.80;14.80;;;;;;;;;;4993068;28;20178;-83
2020/12/23 13:54:19;;;;;;;19.53;15.23;;;;;;;;;;4992890;28;20206;-83
2020/12/23 13:56:50;;;;;;;18.53;13.90;;;;;;;;;;4993051;28;20224;-83
2020/12/23 13:59:20;;;;;;;22.53;14.67;;;;;;;;;;4993079;28;20170;-84
2020/12/23 14:01:47;;;;;;;18.23;13.47;;;;;;;;;;4994212;28;20537;-83
2020/12/23 14:04:16;;;;;;;18.80;13.53;;;;;;;;;;4994182;28;20194;-83
2020/12/23 14:06:44;;;;;;;19.10;14.27;;;;;;;;;;4992892;28;20216;-84
2020/12/23 14:09:10;;;;;;;16.80;13.03;;;;;;;;;;4994205;28;20260;-83
2020/12/23 14:11:38;;;;;;;21.40;14.43;;;;;;;;;;4994512;28;20661;-83
2020/12/23 14:14:07;;;;;;;18.87;13.90;;;;;;;;;;4994429;28;20204;-83
2020/12/23 14:16:38;;;;;;;19.50;13.73;;;;;;;;;;4994209;28;20178;-83
2020/12/23 14:19:06;;;;;;;18.73;14.87;;;;;;;;;;4994285;28;20229;-84
2020/12/23 14:21:35;;;;;;;19.83;13.70;;;;;;;;;;4994442;28;20172;-84
2020/12/23 14:24:02;;;;;;;17.20;13.60;;;;;;;;;;4993231;28;20584;-83
2020/12/23 14:26:32;;;;;;;18.70;13.07;;;;;;;;;;4993377;28;20523;-83
2020/12/23 14:28:58;;;;;;;19.60;14.20;;;;;;;;;;4994210;28;20652;-83
2020/12/23 14:31:24;;;;;;;21.63;13.53;;;;;;;;;;4993930;28;20182;-83
2020/12/23 14:33:50;;;;;;;18.00;13.87;;;;;;;;;;4992618;28;20210;-82
2020/12/23 14:36:21;;;;;;;16.50;12.93;;;;;;;;;;4994214;28;20170;-84